sensor_id;sensor_type;location;lat;lon;timestamp;pressure;altitude;pressure_sealevel;temperature;humidity
61740;BME280;47645;45.288;12.038;2023-03-21T00:01:33;1018.699656841106;;;9.2140625;87.01575875660886
61740;BME280;47645;45.288;12.038;2023-03-21T00:11:33;1018.5456958984774;;;9.0712890625;86.94387328755826
61740;BME280;47645;45.288;12.038;2023-03-21T00:21:37;1018.4337929422833;;;8.9796875;87.1535735685795
61740;BME280;47645;45.288;12.038;2023-03-21T00:31:34;1018.3205792592976;;;8.77578125;88.52010470828132
61740;BME280;47645;45.288;12.038;2023-03-21T00:41:35;1018.2060661900807;;;8.8267578125;87.59267754628515
61740;BME280;47645;45.288;12.038;2023-03-21T00:51:36;1018.0945774754546;;;8.801171875;87.10082657749514
61740;BME280;47645;45.288;12.038;2023-03-21T01:01:36;1017.9445604034036;;;8.7451171875;87.02888388939998
61740;BME280;47645;45.288;12.038;2023-03-21T01:11:36;1017.8738945734691;;;8.6482421875;87.27579830958615
61740;BME280;47645;45.288;12.038;2023-03-21T01:21:37;1017.7958769000364;;;8.587109375;87.40166368637831
61740;BME280;47645;45.288;12.038;2023-03-21T01:31:38;1017.6572647822895;;;8.48515625;87.86868985732438
61740;BME280;47645;45.288;12.038;2023-03-21T01:41:40;1017.6311948527965;;;8.4546875;87.4900267914919
61740;BME280;47645;45.288;12.038;2023-03-21T01:51:42;1017.4838779963416;;;8.362890625;88.00442974704548
61740;BME280;47645;45.288;12.038;2023-03-21T02:01:42;1017.3629055033348;;;8.3271484375;87.332224746682
61740;BME280;47645;45.288;12.038;2023-03-21T02:11:40;1017.31773187094;;;8.23046875;87.33885002266453
61740;BME280;47645;45.288;12.038;2023-03-21T02:21:58;1017.3360796160327;;;8.13359375;87.20549852468463
61740;BME280;47645;45.288;12.038;2023-03-21T02:31:45;1017.1794559802205;;;8.051953125;87.31175638856611
61740;BME280;47645;45.288;12.038;2023-03-21T02:41:47;1017.1704831046618;;;7.9908203125;87.40497438237064
61740;BME280;47645;45.288;12.038;2023-03-21T02:51:43;1017.1519112705255;;;7.89921875;87.49958040742018
61740;BME280;47645;45.288;12.038;2023-03-21T03:01:43;1017.2130783771314;;;7.8482421875;87.73888264629659
61740;BME280;47645;45.288;12.038;2023-03-21T03:11:44;1017.1391024430943;;;7.7666015625;87.70805792944849
61740;BME280;47645;45.288;12.038;2023-03-21T03:21:48;1017.1967679414869;;;7.7412109375;87.5297118935965
61740;BME280;47645;45.288;12.038;2023-03-21T03:31:47;1017.2128386580396;;;7.593359375;88.10207181146163
61740;BME280;47645;45.288;12.038;2023-03-21T03:41:47;1017.1942822636229;;;7.603515625;87.6403174694622
61740;BME280;47645;45.288;12.038;2023-03-21T03:51:50;1017.1701792845249;;;7.578125;87.35757961137311
61740;BME280;47645;45.288;12.038;2023-03-21T04:01:45;1017.1087042155986;;;7.5474609375;87.76634979760871
61740;BME280;47645;45.288;12.038;2023-03-21T04:11:46;1017.1311069371909;;;7.4404296875;88.31991240721706
61740;BME280;47645;45.288;12.038;2023-03-21T04:21:47;1017.1488676089039;;;7.3384765625;88.20300128328014
61740;BME280;47645;45.288;12.038;2023-03-21T04:31:49;1017.1313245109424;;;7.175390625;88.60730450440812
61740;BME280;47645;45.288;12.038;2023-03-21T04:41:47;1017.1836303419223;;;7.144921875;88.03207793093385
61740;BME280;47645;45.288;12.038;2023-03-21T04:51:47;1017.2269851067837;;;7.1193359375;87.84791906189801
61740;BME280;47645;45.288;12.038;2023-03-21T05:01:49;1017.3088035255573;;;6.930859375;88.98508020497997
61740;BME280;47645;45.288;12.038;2023-03-21T05:11:49;1017.311337876205;;;6.859375;90.21003855128116
61740;BME280;47645;45.288;12.038;2023-03-21T05:21:49;1017.339616847991;;;7.04296875;88.86549876361812
61740;BME280;47645;45.288;12.038;2023-03-21T05:31:50;1017.3917443085817;;;7.04296875;88.42092012981529
61740;BME280;47645;45.288;12.038;2023-03-21T05:41:50;1017.5033502922618;;;7.1345703125;87.78810832582168
61740;BME280;47645;45.288;12.038;2023-03-21T05:51:50;1017.497648873776;;;7.3232421875;86.67555854118937
61740;BME280;47645;45.288;12.038;2023-03-21T06:01:51;1017.4540869122022;;;7.399609375;86.24824786490954
61740;BME280;47645;45.288;12.038;2023-03-21T06:11:52;1017.5067306097894;;;7.48125;85.46444943690238
61740;BME280;47645;45.288;12.038;2023-03-21T06:21:52;1017.5848487893974;;;7.5423828125;85.0323044795549
61740;BME280;47645;45.288;12.038;2023-03-21T06:31:52;1017.6242627661258;;;7.6494140625;84.59941103414602
61740;BME280;47645;45.288;12.038;2023-03-21T06:41:53;1017.7701626737493;;;7.8685546875;84.03181017188992
61740;BME280;47645;45.288;12.038;2023-03-21T06:51:54;1017.7717735417725;;;8.021484375;83.80795176758849
61740;BME280;47645;45.288;12.038;2023-03-21T07:01:54;1017.9151353993698;;;8.1744140625;82.87011764368773
61740;BME280;47645;45.288;12.038;2023-03-21T07:11:55;1017.8576818575025;;;8.3578125;88.8395492185317
61740;BME280;47645;45.288;12.038;2023-03-21T07:21:55;1017.8544480998437;;;8.4189453125;87.50796286307833
61740;BME280;47645;45.288;12.038;2023-03-21T07:31:56;1017.796300152987;;;8.683984375;87.93021037638555
61740;BME280;47645;45.288;12.038;2023-03-21T07:41:57;1017.9080846477273;;;9.4025390625;99.45108009922556
61740;BME280;47645;45.288;12.038;2023-03-21T07:51:59;1017.865096603581;;;9.5708984375;100
61740;BME280;47645;45.288;12.038;2023-03-21T08:01:58;1017.8332837801466;;;9.998828125;100
61740;BME280;47645;45.288;12.038;2023-03-21T08:11:58;1017.7929902166496;;;10.2384765625;100
61740;BME280;47645;45.288;12.038;2023-03-21T08:22:00;1017.7838110438898;;;10.39140625;100
61740;BME280;47645;45.288;12.038;2023-03-21T08:31:59;1017.9011601665101;;;10.6615234375;100
61740;BME280;47645;45.288;12.038;2023-03-21T08:42:00;1017.981963207111;;;10.8806640625;100
61740;BME280;47645;45.288;12.038;2023-03-21T08:52:01;1018.0150625019575;;;10.7939453125;100
61740;BME280;47645;45.288;12.038;2023-03-21T09:02:01;1017.9209746640493;;;11.252734375;100
61740;BME280;47645;45.288;12.038;2023-03-21T09:12:02;1017.8959179202606;;;12.02734375;100
61740;BME280;47645;45.288;12.038;2023-03-21T09:22:04;1017.8603986297862;;;12.62890625;97.52666238399976
61740;BME280;47645;45.288;12.038;2023-03-21T09:32:06;1017.70879357373;;;13.1486328125;95.33696179880815
61740;BME280;47645;45.288;12.038;2023-03-21T09:42:13;1017.7086516602233;;;13.8927734375;93.43529846310165
61740;BME280;47645;45.288;12.038;2023-03-21T09:52:11;1017.6221761155549;;;14.565625;91.23171081675345
61740;BME280;47645;45.288;12.038;2023-03-21T10:02:19;1017.500716112306;;;15.3404296875;86.7634746165592
61740;BME280;47645;45.288;12.038;2023-03-21T10:12:13;1017.3978149740271;;;16.56875;78.08954213000744
61740;BME280;47645;45.288;12.038;2023-03-21T10:22:08;1017.4222854699503;;;17.2619140625;71.14076782509811
61740;BME280;47645;45.288;12.038;2023-03-21T10:32:09;1017.3958484219374;;;18.3271484375;70.64075378550245
61740;BME280;47645;45.288;12.038;2023-03-21T10:42:17;1017.3524652002649;;;19.112109375;61.34400944641121
61740;BME280;47645;45.288;12.038;2023-03-21T10:52:13;1017.3145370219906;;;19.841015625;62.866576553628356
61740;BME280;47645;45.288;12.038;2023-03-21T11:02:17;1017.2005656887668;;;20.559765625;60.74110070620137
61740;BME280;47645;45.288;12.038;2023-03-21T11:12:14;1017.1569185763714;;;20.987890625;55.00747216636357
61740;BME280;47645;45.288;12.038;2023-03-21T11:22:14;1017.0165305097064;;;21.4365234375;50.82538589470509
61740;BME280;47645;45.288;12.038;2023-03-21T11:32:21;1016.9491665526657;;;22.027734375;52.545304160647575
61740;BME280;47645;45.288;12.038;2023-03-21T11:42:26;1016.9621634766944;;;22.6802734375;50.99366679981716
61740;BME280;47645;45.288;12.038;2023-03-21T11:52:23;1016.7957593726356;;;22.97578125;51.057928122784126
61740;BME280;47645;45.288;12.038;2023-03-21T12:02:35;1016.6594779024819;;;23.067578125;49.21715718305631
61740;BME280;47645;45.288;12.038;2023-03-21T12:12:28;1016.4970533404085;;;23.2357421875;50.822574941803374
61740;BME280;47645;45.288;12.038;2023-03-21T12:22:26;1016.3684596533272;;;23.4041015625;47.142002125810535
61740;BME280;47645;45.288;12.038;2023-03-21T12:32:34;1016.252074721632;;;23.164453125;44.60059731616383
61740;BME280;47645;45.288;12.038;2023-03-21T12:42:38;1016.0331573375644;;;23.444921875;46.582941831478166
61740;BME280;47645;45.288;12.038;2023-03-21T12:52:25;1015.992055162601;;;23.980078125;46.283960325164706
61740;BME280;47645;45.288;12.038;2023-03-21T13:02:28;1015.7624165435611;;;24.4490234375;45.93722462581149
61740;BME280;47645;45.288;12.038;2023-03-21T13:12:35;1015.7417174115196;;;24.790625;37.1657597777792
61740;BME280;47645;45.288;12.038;2023-03-21T13:22:27;1015.6622778808207;;;24.0513671875;37.73920646585556
61740;BME280;47645;45.288;12.038;2023-03-21T13:32:29;1015.5494651912543;;;24.5;39.266923348644916
61740;BME280;47645;45.288;12.038;2023-03-21T13:42:32;1015.4189133985377;;;24.89765625;41.45208591755799
61740;BME280;47645;45.288;12.038;2023-03-21T13:52:30;1015.2528369466364;;;24.902734375;37.1648679576322
61740;BME280;47645;45.288;12.038;2023-03-21T14:02:32;1015.1615132993371;;;24.9078125;36.92681074471471
61740;BME280;47645;45.288;12.038;2023-03-21T14:12:38;1015.1108262165314;;;24.80078125;38.917883064336735
61740;BME280;47645;45.288;12.038;2023-03-21T14:22:33;1014.9825006869956;;;24.4642578125;36.077775904303635
61740;BME280;47645;45.288;12.038;2023-03-21T14:32:36;1014.9444044913649;;;24.5458984375;37.75927609635811
61740;BME280;47645;45.288;12.038;2023-03-21T14:42:37;1014.7593680640089;;;23.990234375;35.25378489757149
61740;BME280;47645;45.288;12.038;2023-03-21T14:52:40;1014.6530502257561;;;24.5611328125;36.94705422427124
61740;BME280;47645;45.288;12.038;2023-03-21T15:02:40;1014.5682456644789;;;24.00546875;36.859005850622964
61740;BME280;47645;45.288;12.038;2023-03-21T15:12:49;1014.4862469098999;;;23.8525390625;37.13819484641232
61740;BME280;47645;45.288;12.038;2023-03-21T15:22:44;1014.4657322332392;;;23.1900390625;36.744202441843335
61740;BME280;47645;45.288;12.038;2023-03-21T15:32:41;1014.4629049094261;;;23.2306640625;38.29931263969219
61740;BME280;47645;45.288;12.038;2023-03-21T15:42:43;1014.3535124878614;;;22.5986328125;39.07009278775067
61740;BME280;47645;45.288;12.038;2023-03-21T15:52:44;1014.3217049350658;;;22.104296875;39.8381291229826
61740;BME280;47645;45.288;12.038;2023-03-21T16:02:45;1014.2520530175788;;;21.726953125;42.07236603181278
61740;BME280;47645;45.288;12.038;2023-03-21T16:12:46;1014.2962967605052;;;21.084765625;43.563497105983274
61740;BME280;47645;45.288;12.038;2023-03-21T16:22:47;1014.375817126908;;;20.452734375;45.54843228647988
61740;BME280;47645;45.288;12.038;2023-03-21T16:32:49;1014.4556740510733;;;19.917578125;47.54513237074028
61740;BME280;47645;45.288;12.038;2023-03-21T16:42:49;1014.496203885472;;;19.5505859375;48.093134091976694
61740;BME280;47645;45.288;12.038;2023-03-21T16:52:50;1014.4314089097165;;;19.1529296875;50.529718332399405
61740;BME280;47645;45.288;12.038;2023-03-21T17:02:52;1014.5107135545626;;;18.7298828125;53.198298240613916
61740;BME280;47645;45.288;12.038;2023-03-21T17:12:52;1014.4496486405092;;;18.3322265625;56.02028136585736
61740;BME280;47645;45.288;12.038;2023-03-21T17:22:53;1014.4317656365197;;;17.9958984375;58.13282468660297
61740;BME280;47645;45.288;12.038;2023-03-21T17:32:54;1014.4278152739216;;;17.62890625;59.51841596504569
61740;BME280;47645;45.288;12.038;2023-03-21T17:42:55;1014.5381213777121;;;17.2771484375;61.26459000194404
61740;BME280;47645;45.288;12.038;2023-03-21T17:52:57;1014.4835942214397;;;17.0326171875;62.3065375726963
61740;BME280;47645;45.288;12.038;2023-03-21T18:02:57;1014.4994187044524;;;16.7470703125;63.982445819338544
61740;BME280;47645;45.288;12.038;2023-03-21T18:12:58;1014.5771799597185;;;16.2322265625;65.28076955312807
61740;BME280;47645;45.288;12.038;2023-03-21T18:22:58;1014.5467736083963;;;15.9724609375;66.65242130948151
61740;BME280;47645;45.288;12.038;2023-03-21T18:32:59;1014.5892850929049;;;15.844921875;67.19131259206819
61740;BME280;47645;45.288;12.038;2023-03-21T18:43:01;1014.6840735271506;;;15.5646484375;68.33902434819434
61740;BME280;47645;45.288;12.038;2023-03-21T18:53:01;1014.7416698627127;;;15.330078125;69.03323398543334
61740;BME280;47645;45.288;12.038;2023-03-21T19:03:03;1014.8358003264206;;;15.1466796875;70.11709620342631
61740;BME280;47645;45.288;12.038;2023-03-21T19:13:03;1014.895316499132;;;15.085546875;70.36649726155336
61740;BME280;47645;45.288;12.038;2023-03-21T19:23:05;1014.9156440939981;;;15.0294921875;70.88450922259466
61740;BME280;47645;45.288;12.038;2023-03-21T19:33:05;1014.9224104170981;;;14.8154296875;71.64973475011784
61740;BME280;47645;45.288;12.038;2023-03-21T19:43:06;1015.0127000371357;;;14.5349609375;72.89230315001643
61740;BME280;47645;45.288;12.038;2023-03-21T19:53:07;1014.9990087721519;;;14.55546875;72.52952725764294
61740;BME280;47645;45.288;12.038;2023-03-21T20:03:08;1015.0701594158132;;;14.5962890625;72.335037869995
61740;BME280;47645;45.288;12.038;2023-03-21T20:13:08;1015.0838604974097;;;14.483984375;72.53448543244693
61740;BME280;47645;45.288;12.038;2023-03-21T20:23:09;1015.1095892861689;;;14.249609375;73.42965263315277
61740;BME280;47645;45.288;12.038;2023-03-21T20:33:10;1015.0760519715393;;;14.22421875;73.32111770080927
61740;BME280;47645;45.288;12.038;2023-03-21T20:43:11;1015.1318618799842;;;14.12734375;73.43719828725489
61740;BME280;47645;45.288;12.038;2023-03-21T20:53:11;1015.1955513907192;;;14.055859375;73.36391603398121
61740;BME280;47645;45.288;12.038;2023-03-21T21:03:12;1015.2466714849451;;;13.80625;74.41853506880616
61740;BME280;47645;45.288;12.038;2023-03-21T21:13:14;1015.2800422918193;;;13.7806640625;74.00501519913635
61740;BME280;47645;45.288;12.038;2023-03-21T21:23:14;1015.3763185949111;;;13.6533203125;75.1744643647825
61740;BME280;47645;45.288;12.038;2023-03-21T21:33:14;1015.4351669338312;;;13.5921875;74.37953399901697
61740;BME280;47645;45.288;12.038;2023-03-21T21:43:25;1015.4417483635525;;;13.3220703125;75.7167196082981
61740;BME280;47645;45.288;12.038;2023-03-21T21:53:20;1015.4440147961162;;;13.27109375;75.54943328379666
61740;BME280;47645;45.288;12.038;2023-03-21T22:03:22;1015.4446632048287;;;13.1435546875;75.7635163724003
61740;BME280;47645;45.288;12.038;2023-03-21T22:13:24;1015.4254007990858;;;12.95;77.03066840539812
61740;BME280;47645;45.288;12.038;2023-03-21T22:23:19;1015.5090116560714;;;12.853125;77.06772215963277
61740;BME280;47645;45.288;12.038;2023-03-21T22:33:22;1015.5620558325043;;;12.6849609375;78.58711720986429
61740;BME280;47645;45.288;12.038;2023-03-21T22:43:20;1015.6009764259179;;;12.6236328125;78.01728351743041
61740;BME280;47645;45.288;12.038;2023-03-21T22:53:23;1015.5532062996423;;;12.7919921875;75.76713571746096
61740;BME280;47645;45.288;12.038;2023-03-21T23:03:22;1015.5525866086335;;;12.6236328125;76.12676854128483
61740;BME280;47645;45.288;12.038;2023-03-21T23:13:23;1015.653505071599;;;12.4912109375;76.48872769825832
61740;BME280;47645;45.288;12.038;2023-03-21T23:23:24;1015.5842176713248;;;12.2669921875;77.46157353997249
61740;BME280;47645;45.288;12.038;2023-03-21T23:33:24;1015.5634574402048;;;12.0478515625;78.30450541126568
61740;BME280;47645;45.288;12.038;2023-03-21T23:43:25;1015.4724097068614;;;11.925390625;78.45667420653795
61740;BME280;47645;45.288;12.038;2023-03-21T23:53:26;1015.4179668782089;;;11.583984375;82.39405887686675
